Time;durP1;ratioP1;P1;durP2;ratioP2;P2;SDS_P1;SDS_P2;PMS_P1;PMS_P2;Temp;Humidity;BMP_temperature;BMP_pressure;BME280_temperature;BME280_humidity;BME280_pressure;Samples;Min_cycle;Max_cycle;Signal;HPM_P1;HPM_P2
2022/04/21 00:00:15;;;;;;;18.00;7.55;;;;;;;;;;4708372;30;20570;-85
2022/04/21 00:02:41;;;;;;;9.55;6.55;;;;;;;;;;4708525;30;20064;-85
2022/04/21 00:05:08;;;;;;;6.57;5.65;;;;;;;;;;4708494;30;20059;-85
2022/04/21 00:07:34;;;;;;;11.40;6.97;;;;;;;;;;4737908;30;20052;-85
2022/04/21 00:10:03;;;;;;;13.23;7.05;;;;;;;;;;4708155;30;20066;-85
2022/04/21 00:12:29;;;;;;;11.00;7.50;;;;;;;;;;4738787;30;20395;-85
2022/04/21 00:14:55;;;;;;;13.15;7.30;;;;;;;;;;4737293;30;20122;-85
2022/04/21 00:17:22;;;;;;;11.13;7.68;;;;;;;;;;4738603;30;20056;-86
2022/04/21 00:19:48;;;;;;;14.13;7.85;;;;;;;;;;4738720;30;20127;-85
2022/04/21 00:24:59;;;;;;;13.57;8.07;;;;;;;;;;4738914;30;20063;-85
2022/04/21 00:27:26;;;;;;;13.43;7.82;;;;;;;;;;4737099;30;20106;-85
2022/04/21 00:29:52;;;;;;;13.23;7.70;;;;;;;;;;4737313;30;20107;-85
2022/04/21 00:32:18;;;;;;;14.70;8.45;;;;;;;;;;4708330;30;20388;-85
2022/04/21 00:34:44;;;;;;;18.17;8.43;;;;;;;;;;4708470;30;20063;-85
2022/04/21 00:37:11;;;;;;;14.02;8.48;;;;;;;;;;4736831;30;20063;-85
2022/04/21 00:39:38;;;;;;;18.35;8.95;;;;;;;;;;4736773;30;20061;-86
2022/04/21 00:42:04;;;;;;;12.00;8.88;;;;;;;;;;4707514;30;20059;-86
2022/04/21 00:44:30;;;;;;;12.40;8.45;;;;;;;;;;4736268;30;20092;-85
2022/04/21 00:46:58;;;;;;;11.77;7.30;;;;;;;;;;4736189;30;20052;-86
2022/04/21 00:49:25;;;;;;;17.35;10.05;;;;;;;;;;4736580;30;20106;-85
2022/04/21 00:51:55;;;;;;;15.32;7.90;;;;;;;;;;4737320;30;20107;-85
2022/04/21 00:54:21;;;;;;;15.30;9.55;;;;;;;;;;4736958;30;20071;-85
2022/04/21 00:56:47;;;;;;;13.15;8.93;;;;;;;;;;4736517;30;20520;-85
2022/04/21 00:59:13;;;;;;;15.18;8.57;;;;;;;;;;4707744;30;20400;-86
2022/04/21 01:04:25;;;;;;;14.18;9.95;;;;;;;;;;4721532;30;20499;-86
2022/04/21 01:06:57;;;;;;;11.82;8.70;;;;;;;;;;4736883;30;20060;-86
2022/04/21 01:09:23;;;;;;;17.30;9.68;;;;;;;;;;4707393;30;20190;-86
2022/04/21 01:11:50;;;;;;;15.55;9.38;;;;;;;;;;4707596;30;20149;-85
2022/04/21 01:14:16;;;;;;;15.35;9.25;;;;;;;;;;4707864;30;20546;-85
2022/04/21 01:16:42;;;;;;;17.50;9.60;;;;;;;;;;4707348;30;20052;-85
2022/04/21 01:19:08;;;;;;;13.15;9.38;;;;;;;;;;4706905;30;20048;-85
2022/04/21 01:21:34;;;;;;;12.23;8.70;;;;;;;;;;4735690;30;20048;-86
2022/04/21 01:24:01;;;;;;;10.38;8.05;;;;;;;;;;4707460;30;20092;-86
2022/04/21 01:26:28;;;;;;;14.68;8.65;;;;;;;;;;4706821;30;20135;-86
2022/04/21 01:28:55;;;;;;;11.85;8.48;;;;;;;;;;4707335;30;20052;-85
2022/04/21 01:31:24;;;;;;;13.20;9.50;;;;;;;;;;4707434;30;20091;-85
2022/04/21 01:33:50;;;;;;;12.32;8.40;;;;;;;;;;4736793;30;20459;-85
2022/04/21 01:36:17;;;;;;;10.93;8.25;;;;;;;;;;4707217;30;20044;-85
2022/04/21 01:41:28;;;;;;;13.70;8.80;;;;;;;;;;4721934;30;20057;-85
2022/04/21 01:43:54;;;;;;;14.02;8.00;;;;;;;;;;4707367;30;20053;-85
2022/04/21 01:46:20;;;;;;;15.23;9.77;;;;;;;;;;4736073;30;20413;-85
2022/04/21 01:48:46;;;;;;;10.82;8.10;;;;;;;;;;4707556;30;20049;-85
2022/04/21 01:51:12;;;;;;;12.75;7.88;;;;;;;;;;4706971;30;20056;-85
2022/04/21 01:53:39;;;;;;;14.95;8.60;;;;;;;;;;4735540;30;20143;-85
2022/04/21 01:56:05;;;;;;;14.02;9.10;;;;;;;;;;4735841;30;20506;-85
2022/04/21 01:58:31;;;;;;;12.18;9.07;;;;;;;;;;4736430;30;20061;-85
2022/04/21 02:00:57;;;;;;;15.00;8.50;;;;;;;;;;4737160;30;20052;-85
2022/04/21 02:03:23;;;;;;;12.23;9.32;;;;;;;;;;4737338;30;20052;-85
2022/04/21 02:05:49;;;;;;;13.73;9.23;;;;;;;;;;4735901;30;20134;-85
2022/04/21 02:08:15;;;;;;;16.95;10.60;;;;;;;;;;4706991;30;20054;-85
2022/04/21 02:10:42;;;;;;;15.93;10.82;;;;;;;;;;4736498;30;20447;-85
2022/04/21 02:13:08;;;;;;;22.90;13.05;;;;;;;;;;4736691;30;20135;-85
2022/04/21 02:15:34;;;;;;;20.90;10.70;;;;;;;;;;4735741;30;20049;-85
2022/04/21 02:18:01;;;;;;;19.40;10.85;;;;;;;;;;4737301;30;20053;-85
2022/04/21 02:20:27;;;;;;;16.55;11.05;;;;;;;;;;4706578;30;20144;-84
2022/04/21 02:22:53;;;;;;;20.48;11.73;;;;;;;;;;4736768;30;20071;-85
2022/04/21 02:25:19;;;;;;;16.75;10.95;;;;;;;;;;4735010;30;20067;-85
2022/04/21 02:27:46;;;;;;;14.40;10.13;;;;;;;;;;4705922;30;20095;-85
2022/04/21 02:30:13;;;;;;;23.05;11.65;;;;;;;;;;4706170;30;20056;-86
2022/04/21 02:32:40;;;;;;;17.48;10.98;;;;;;;;;;4736343;30;20087;-86
2022/04/21 02:35:07;;;;;;;24.40;11.15;;;;;;;;;;4734943;30;20060;-86
2022/04/21 02:37:39;;;;;;;22.58;11.93;;;;;;;;;;4707082;30;20052;-86
2022/04/21 02:40:06;;;;;;;18.13;11.25;;;;;;;;;;4736456;30;20101;-86
2022/04/21 02:42:33;;;;;;;17.17;11.60;;;;;;;;;;4736643;30;20094;-86
2022/04/21 02:44:59;;;;;;;17.45;10.95;;;;;;;;;;4734986;30;20060;-85
2022/04/21 02:47:25;;;;;;;18.88;10.68;;;;;;;;;;4705770;30;20052;-86
2022/04/21 02:49:53;;;;;;;19.92;11.23;;;;;;;;;;4705380;30;20149;-86
2022/04/21 02:52:19;;;;;;;18.80;11.10;;;;;;;;;;4705405;30;20139;-86
2022/04/21 02:57:30;;;;;;;19.83;11.80;;;;;;;;;;4736276;30;20053;-86
2022/04/21 03:00:00;;;;;;;20.80;11.43;;;;;;;;;;4734548;30;20048;-86
2022/04/21 03:02:26;;;;;;;19.35;11.43;;;;;;;;;;4735959;30;20056;-86
2022/04/21 03:04:53;;;;;;;15.63;10.48;;;;;;;;;;4736117;30;20067;-86
2022/04/21 03:07:22;;;;;;;15.85;11.25;;;;;;;;;;4706135;30;20149;-86
2022/04/21 03:09:53;;;;;;;16.63;10.30;;;;;;;;;;4735036;30;20494;-86
2022/04/21 03:12:19;;;;;;;14.93;10.45;;;;;;;;;;4707012;30;20049;-86
2022/04/21 03:14:45;;;;;;;16.98;10.38;;;;;;;;;;4734552;30;20071;-86
2022/04/21 03:17:11;;;;;;;17.67;10.50;;;;;;;;;;4735375;30;20084;-86
2022/04/21 03:19:38;;;;;;;17.25;10.57;;;;;;;;;;4720116;30;20487;-85
2022/04/21 03:24:49;;;;;;;14.38;9.77;;;;;;;;;;4735680;30;20080;-85
2022/04/21 03:27:15;;;;;;;14.13;9.10;;;;;;;;;;4735649;30;20064;-85
2022/04/21 03:29:41;;;;;;;13.80;10.20;;;;;;;;;;4734325;30;20148;-86
2022/04/21 03:32:09;;;;;;;14.00;9.93;;;;;;;;;;4734550;30;20045;-85
2022/04/21 03:34:42;;;;;;;13.82;9.07;;;;;;;;;;4705586;30;20057;-84
2022/04/21 03:37:09;;;;;;;13.23;9.40;;;;;;;;;;4706210;30;20483;-85
2022/04/21 03:39:36;;;;;;;17.40;10.90;;;;;;;;;;4705703;30;20052;-85
2022/04/21 03:42:02;;;;;;;11.73;8.60;;;;;;;;;;4705467;30;20099;-84
2022/04/21 03:44:29;;;;;;;14.38;10.00;;;;;;;;;;4734560;30;20051;-85
2022/04/21 03:46:57;;;;;;;14.18;8.93;;;;;;;;;;4705809;30;20057;-85
2022/04/21 03:49:30;;;;;;;14.77;9.20;;;;;;;;;;4735502;30;20091;-85
2022/04/21 03:51:57;;;;;;;14.98;9.02;;;;;;;;;;4705347;30;20060;-85
2022/04/21 03:54:23;;;;;;;14.20;9.60;;;;;;;;;;4735720;30;20066;-85
2022/04/21 03:56:50;;;;;;;15.13;9.73;;;;;;;;;;4737121;30;20041;-85
2022/04/21 03:59:16;;;;;;;13.65;8.65;;;;;;;;;;4706685;30;20052;-85
2022/04/21 04:01:43;;;;;;;12.63;9.48;;;;;;;;;;4734804;30;20147;-85
2022/04/21 04:04:09;;;;;;;18.80;8.63;;;;;;;;;;4705834;30;20064;-85
2022/04/21 04:12:04;;;;;;;14.85;8.55;;;;;;;;;;4722935;30;20056;-85
2022/04/21 04:14:30;;;;;;;13.80;9.57;;;;;;;;;;4737124;30;20060;-86
2022/04/21 04:16:56;;;;;;;19.88;7.97;;;;;;;;;;4736982;30;20127;-86
2022/04/21 04:19:22;;;;;;;12.32;9.70;;;;;;;;;;4708821;30;20052;-85
2022/04/21 04:21:48;;;;;;;16.20;9.07;;;;;;;;;;4738219;30;20048;-85
2022/04/21 04:24:14;;;;;;;13.40;9.05;;;;;;;;;;4739400;30;20053;-85
2022/04/21 04:26:40;;;;;;;11.20;8.25;;;;;;;;;;4737955;30;20463;-85
2022/04/21 04:29:06;;;;;;;12.52;8.45;;;;;;;;;;4737929;30;20060;-85
2022/04/21 04:31:33;;;;;;;15.25;8.93;;;;;;;;;;4707510;30;20053;-85
2022/04/21 04:34:00;;;;;;;13.23;7.80;;;;;;;;;;4737144;30;20057;-85
2022/04/21 04:36:27;;;;;;;12.85;8.10;;;;;;;;;;4707896;30;20048;-86
2022/04/21 04:38:53;;;;;;;14.30;8.30;;;;;;;;;;4708565;30;20130;-85
2022/04/21 04:44:04;;;;;;;13.15;8.52;;;;;;;;;;4722095;30;20060;-85
2022/04/21 04:46:35;;;;;;;15.23;8.63;;;;;;;;;;4738290;30;20059;-85
2022/04/21 04:49:09;;;;;;;11.63;8.30;;;;;;;;;;4723227;30;20134;-85
2022/04/21 04:51:37;;;;;;;13.55;7.95;;;;;;;;;;4709267;30;20194;-85
2022/04/21 04:54:05;;;;;;;12.60;8.65;;;;;;;;;;4737868;30;20052;-85
2022/04/21 04:56:31;;;;;;;11.23;8.23;;;;;;;;;;4708950;30;20044;-85
2022/04/21 04:58:58;;;;;;;12.60;7.95;;;;;;;;;;4737937;30;20529;-85
2022/04/21 05:01:30;;;;;;;13.02;8.35;;;;;;;;;;4739232;30;20173;-85
2022/04/21 05:04:02;;;;;;;9.75;7.72;;;;;;;;;;4706808;30;20061;-84
2022/04/21 05:06:47;;;;;;;16.85;8.90;;;;;;;;;;4720967;30;20053;-85
2022/04/21 05:09:14;;;;;;;12.30;8.50;;;;;;;;;;4692335;30;20081;-85
2022/04/21 05:11:41;;;;;;;11.07;8.32;;;;;;;;;;4692226;30;20060;-85
2022/04/21 05:14:08;;;;;;;12.00;8.82;;;;;;;;;;4692157;30;20120;-85
2022/04/21 05:16:39;;;;;;;11.63;8.38;;;;;;;;;;4721064;30;20080;-84
2022/04/21 05:19:07;;;;;;;13.63;8.50;;;;;;;;;;4691816;30;20113;-85
2022/04/21 05:21:34;;;;;;;11.32;7.78;;;;;;;;;;4718445;30;20507;-85
2022/04/21 05:24:02;;;;;;;12.13;8.70;;;;;;;;;;4718961;30;20068;-85
2022/04/21 05:26:29;;;;;;;15.20;9.82;;;;;;;;;;4691012;30;20049;-85
2022/04/21 05:28:55;;;;;;;14.38;9.43;;;;;;;;;;4690983;30;20106;-85
2022/04/21 05:31:22;;;;;;;14.10;8.48;;;;;;;;;;4690425;30;20049;-85
2022/04/21 05:33:48;;;;;;;11.88;7.93;;;;;;;;;;4719603;30;20060;-85
2022/04/21 05:36:15;;;;;;;12.00;8.65;;;;;;;;;;4690521;30;20093;-85
2022/04/21 05:38:41;;;;;;;13.50;8.02;;;;;;;;;;4691091;30;20074;-85
2022/04/21 05:41:07;;;;;;;10.82;8.15;;;;;;;;;;4690657;30;20060;-85
2022/04/21 05:43:44;;;;;;;11.27;8.18;;;;;;;;;;4719154;30;20067;-84
2022/04/21 05:46:10;;;;;;;11.75;8.20;;;;;;;;;;4720043;30;20155;-85
2022/04/21 05:48:37;;;;;;;13.50;8.77;;;;;;;;;;4690162;30;20064;-85
2022/04/21 05:51:04;;;;;;;14.25;9.15;;;;;;;;;;4720609;30;20061;-85
2022/04/21 05:53:32;;;;;;;33.42;10.45;;;;;;;;;;4719525;30;20084;-85
2022/04/21 05:55:59;;;;;;;19.40;9.60;;;;;;;;;;4690872;30;20144;-85
2022/04/21 05:58:25;;;;;;;13.45;9.20;;;;;;;;;;4719304;30;20049;-85
2022/04/21 06:00:52;;;;;;;14.93;9.00;;;;;;;;;;4719700;30;20053;-85
2022/04/21 06:03:19;;;;;;;13.88;9.27;;;;;;;;;;4691938;30;20057;-86
2022/04/21 06:05:45;;;;;;;15.55;9.27;;;;;;;;;;4689014;30;20113;-85
2022/04/21 06:08:11;;;;;;;13.80;8.80;;;;;;;;;;4690281;30;20092;-85
2022/04/21 06:10:37;;;;;;;14.23;8.88;;;;;;;;;;4718576;30;20499;-85
2022/04/21 06:13:03;;;;;;;10.95;8.38;;;;;;;;;;4690998;30;20055;-85
2022/04/21 06:15:30;;;;;;;12.38;8.93;;;;;;;;;;4719319;30;20053;-85
2022/04/21 06:17:57;;;;;;;13.30;8.98;;;;;;;;;;4689705;30;20045;-85
2022/04/21 06:20:23;;;;;;;11.75;8.60;;;;;;;;;;4690506;30;20049;-86
2022/04/21 06:22:49;;;;;;;14.55;8.80;;;;;;;;;;4689692;30;20056;-85
2022/04/21 06:25:15;;;;;;;15.68;9.23;;;;;;;;;;4718276;30;20407;-86
2022/04/21 06:27:41;;;;;;;14.85;8.82;;;;;;;;;;4718094;30;20064;-86
2022/04/21 06:30:07;;;;;;;11.30;7.95;;;;;;;;;;4688855;30;20388;-85
2022/04/21 06:32:34;;;;;;;12.25;8.80;;;;;;;;;;4718194;30;20053;-85
2022/04/21 06:35:00;;;;;;;12.50;8.93;;;;;;;;;;4689749;30;20097;-85
2022/04/21 06:37:26;;;;;;;12.13;8.15;;;;;;;;;;4718645;30;20053;-85
2022/04/21 06:39:52;;;;;;;12.60;8.25;;;;;;;;;;4689560;30;20055;-85
2022/04/21 06:42:18;;;;;;;13.32;8.35;;;;;;;;;;4719636;30;20057;-85
2022/04/21 06:50:14;;;;;;;10.65;7.97;;;;;;;;;;4703908;30;20059;-85
2022/04/21 06:52:41;;;;;;;12.65;8.23;;;;;;;;;;4689821;30;20555;-85
2022/04/21 06:55:08;;;;;;;13.52;9.10;;;;;;;;;;4688688;30;20498;-85
2022/04/21 06:57:34;;;;;;;12.25;6.93;;;;;;;;;;4717469;30;20507;-87
2022/04/21 07:00:00;;;;;;;10.25;7.82;;;;;;;;;;4718120;30;20053;-87
2022/04/21 07:02:37;;;;;;;9.85;7.22;;;;;;;;;;4718242;30;20101;-84
2022/04/21 07:05:07;;;;;;;9.82;6.90;;;;;;;;;;4688891;30;20415;-84
2022/04/21 07:07:33;;;;;;;9.38;6.97;;;;;;;;;;4689513;30;20411;-85
2022/04/21 07:10:03;;;;;;;8.98;5.90;;;;;;;;;;4689088;30;20049;-85
2022/04/21 07:12:29;;;;;;;8.15;5.60;;;;;;;;;;4689532;30;20049;-86
2022/04/21 07:15:04;;;;;;;10.07;6.05;;;;;;;;;;4718239;30;20110;-85
2022/04/21 07:17:30;;;;;;;6.07;5.18;;;;;;;;;;4689042;30;20112;-84
2022/04/21 07:19:56;;;;;;;8.27;5.63;;;;;;;;;;4719027;30;20150;-84
2022/04/21 07:22:26;;;;;;;8.70;6.13;;;;;;;;;;4717570;30;20049;-85
2022/04/21 07:24:52;;;;;;;7.38;5.60;;;;;;;;;;4718217;30;20438;-85
2022/04/21 07:27:18;;;;;;;7.90;5.65;;;;;;;;;;4689453;30;20115;-85
2022/04/21 07:29:44;;;;;;;8.40;5.65;;;;;;;;;;4688108;30;20055;-85
2022/04/21 07:32:11;;;;;;;6.68;5.45;;;;;;;;;;4717290;30;20065;-85
2022/04/21 07:34:37;;;;;;;30.25;6.18;;;;;;;;;;4717246;30;20509;-85
2022/04/21 07:37:04;;;;;;;7.75;5.28;;;;;;;;;;4688651;30;20056;-86
2022/04/21 07:39:30;;;;;;;16.35;5.55;;;;;;;;;;4688440;30;20061;-85
2022/04/21 07:41:59;;;;;;;7.80;4.30;;;;;;;;;;4717400;30;20063;-85
2022/04/21 07:44:29;;;;;;;6.63;4.72;;;;;;;;;;4687669;30;20088;-85
2022/04/21 07:46:55;;;;;;;7.20;4.38;;;;;;;;;;4691632;30;20063;-85
2022/04/21 07:54:52;;;;;;;6.80;5.00;;;;;;;;;;4706303;30;20395;-85
2022/04/21 07:57:18;;;;;;;6.88;5.70;;;;;;;;;;4691283;30;20147;-85
2022/04/21 07:59:45;;;;;;;6.05;3.88;;;;;;;;;;4721519;30;20072;-86
2022/04/21 08:02:11;;;;;;;5.45;3.97;;;;;;;;;;4692996;30;20079;-85
2022/04/21 08:04:38;;;;;;;7.68;4.57;;;;;;;;;;4708993;30;20091;-85
2022/04/21 08:07:04;;;;;;;7.43;4.07;;;;;;;;;;4738274;30;20414;-85
2022/04/21 08:09:30;;;;;;;13.38;5.18;;;;;;;;;;4737473;30;20060;-85
2022/04/21 08:11:56;;;;;;;4.38;3.50;;;;;;;;;;4709402;30;20049;-85
2022/04/21 08:14:25;;;;;;;6.28;4.13;;;;;;;;;;4737106;30;20052;-86
2022/04/21 08:16:53;;;;;;;8.63;3.63;;;;;;;;;;4708224;30;20079;-85
2022/04/21 08:19:20;;;;;;;5.53;3.90;;;;;;;;;;4737805;30;20190;-85
2022/04/21 08:21:47;;;;;;;3.90;3.03;;;;;;;;;;4709161;30;20407;-86
2022/04/21 08:32:33;;;;;;;4.50;3.10;;;;;;;;;;4722253;30;20060;-86
2022/04/21 08:35:03;;;;;;;6.93;4.10;;;;;;;;;;4708113;30;20186;-85
2022/04/21 08:37:29;;;;;;;5.50;4.35;;;;;;;;;;4738748;30;20102;-85
2022/04/21 08:39:55;;;;;;;5.78;3.33;;;;;;;;;;4708373;30;20521;-86
2022/04/21 08:42:23;;;;;;;5.45;3.65;;;12.90;99.90;;;;;;4737264;30;20056;-86
2022/04/21 08:44:50;;;;;;;4.38;3.95;;;;;;;;;;4708355;30;20052;-86
2022/04/21 08:47:19;;;;;;;4.75;3.90;;;;;;;;;;4708234;30;20045;-85
2022/04/21 08:49:49;;;;;;;8.50;3.97;;;13.10;99.90;;;;;;4708133;30;20060;-85
2022/04/21 08:52:16;;;;;;;5.88;4.78;;;13.10;99.90;;;;;;4722697;30;20102;-85
2022/04/21 08:54:43;;;;;;;6.75;4.45;;;;;;;;;;4708662;30;20111;-85
2022/04/21 08:57:12;;;;;;;7.13;4.03;;;;;;;;;;4737432;30;20121;-85
2022/04/21 08:59:38;;;;;;;11.85;4.60;;;;;;;;;;4722324;30;20499;-85
2022/04/21 09:02:04;;;;;;;4.95;3.85;;;;;;;;;;4737357;30;20151;-85
2022/04/21 09:04:31;;;;;;;5.72;4.65;;;;;;;;;;4736987;30;20065;-86
2022/04/21 09:06:57;;;;;;;4.68;3.58;;;;;;;;;;4708863;30;20379;-85
2022/04/21 09:09:23;;;;;;;5.07;3.85;;;;;;;;;;4708153;30;20056;-86
2022/04/21 09:11:56;;;;;;;7.68;3.38;;;;;;;;;;4737291;30;20102;-85
2022/04/21 09:14:22;;;;;;;4.20;3.33;;;;;;;;;;4736856;30;20576;-85
2022/04/21 09:16:49;;;;;;;5.10;3.28;;;;;;;;;;4736828;30;20095;-85
2022/04/21 09:19:15;;;;;;;3.75;3.13;;;;;;;;;;4707135;30;20049;-86
2022/04/21 09:21:41;;;;;;;4.15;3.17;;;;;;;;;;4736481;30;20060;-85
2022/04/21 09:24:20;;;;;;;3.95;3.10;;;;;;;;;;4707352;30;20055;-85
2022/04/21 09:26:46;;;;;;;4.18;3.20;;;;;;;;;;4708607;30;20060;-85
2022/04/21 09:29:16;;;;;;;5.82;3.60;;;;;;;;;;4707247;30;20057;-85
2022/04/21 09:31:42;;;;;;;4.68;3.53;;;14.10;99.90;;;;;;4736198;30;20053;-85
2022/04/21 09:34:09;;;;;;;4.85;3.53;;;14.20;99.90;;;;;;4707112;30;20059;-85
2022/04/21 09:36:36;;;;;;;5.32;3.70;;;;;;;;;;4721358;30;20104;-85
2022/04/21 09:39:02;;;;;;;3.22;2.92;;;;;;;;;;4736531;30;20456;-85
2022/04/21 09:41:28;;;;;;;4.45;3.53;;;;;;;;;;4708184;30;20044;-86
2022/04/21 09:46:07;;;;;;;5.75;3.30;;;;;;;;;;4707590;30;20052;-85
2022/04/21 09:46:51;;;;;;;10.75;3.38;;;;;;;;;;4721337;30;20094;-85
2022/04/21 09:49:33;;;;;;;5.20;3.22;;;;;;;;;;4706952;30;20059;-86
2022/04/21 09:51:59;;;;;;;6.18;3.45;;;;;;;;;;4707019;30;20052;-86
2022/04/21 09:54:28;;;;;;;8.38;2.85;;;14.30;99.90;;;;;;4736119;30;20110;-85
2022/04/21 09:56:56;;;;;;;6.47;3.22;;;;;;;;;;4721173;30;20040;-85
2022/04/21 09:59:22;;;;;;;4.88;3.75;;;;;;;;;;4721518;30;20057;-85
2022/04/21 10:01:50;;;;;;;7.32;3.88;;;14.60;99.90;;;;;;4736904;30;20055;-85
2022/04/21 10:04:19;;;;;;;3.33;3.00;;;;;;;;;;4707494;30;20064;-84
2022/04/21 10:06:47;;;;;;;4.40;3.53;;;14.70;99.90;;;;;;4689229;30;20068;-86
2022/04/21 10:09:16;;;;;;;3.92;3.50;;;14.90;99.90;;;;;;4688668;30;20060;-85
2022/04/21 10:11:43;;;;;;;4.25;3.45;;;;;;;;;;4689853;30;20154;-85
2022/04/21 10:14:17;;;;;;;3.92;3.35;;;15.00;99.90;;;;;;4718326;30;20049;-85
2022/04/21 10:16:43;;;;;;;6.85;3.55;;;15.10;99.90;;;;;;4703840;30;20046;-85
2022/04/21 10:19:10;;;;;;;6.80;3.22;;;;;;;;;;4689102;30;20048;-85
2022/04/21 10:21:42;;;;;;;5.78;3.30;;;15.30;99.90;;;;;;4703488;30;20467;-85
2022/04/21 10:24:08;;;;;;;3.08;2.78;;;;;;;;;;4688817;30;20114;-85
2022/04/21 10:26:39;;;;;;;5.90;3.45;;;;;;;;;;4689187;30;20056;-86
2022/04/21 10:29:27;;;;;;;4.15;3.40;;;15.40;99.90;;;;;;4688950;30;20059;-86
2022/04/21 10:31:57;;;;;;;5.57;3.47;;;;;;;;;;4702979;30;20053;-86
2022/04/21 10:34:27;;;;;;;4.50;3.72;;;15.30;99.90;;;;;;4719008;30;20112;-86
2022/04/21 10:37:05;;;;;;;5.82;3.90;;;;;;;;;;4704558;30;20057;-84
2022/04/21 10:39:31;;;;;;;3.63;3.33;;;;;;;;;;4689319;30;20053;-85
2022/04/21 10:42:24;;;;;;;6.68;3.75;;;;;;;;;;4718303;30;20119;-85
2022/04/21 10:44:56;;;;;;;5.35;3.22;;;;;;;;;;4660782;30;20057;-86
2022/04/21 10:47:38;;;;;;;5.90;3.67;;;15.60;99.90;;;;;;4664816;30;20496;-86
2022/04/21 10:50:17;;;;;;;3.80;3.15;;;15.30;99.90;;;;;;4667332;30;20070;-86
2022/04/21 10:58:35;;;;;;;2.97;2.72;;;;;;;;;;4667824;30;20492;-88
2022/04/21 11:01:15;;;;;;;3.50;2.78;;;15.90;99.90;;;;;;4661672;30;20062;-86
2022/04/21 11:03:43;;;;;;;3.63;2.67;;;15.80;99.90;;;;;;4676744;30;20065;-85
2022/04/21 11:06:14;;;;;;;4.72;2.97;;;15.90;99.90;;;;;;4685381;30;20132;-89
2022/04/21 11:08:40;;;;;;;4.53;2.70;;;;;;;;;;4670658;30;20061;-84
2022/04/21 11:11:06;;;;;;;4.22;2.53;;;;;;;;;;4671258;30;20140;-84
2022/04/21 11:13:51;;;;;;;3.33;2.53;;;;;;;;;;4670565;30;20458;-85
2022/04/21 11:16:41;;;;;;;4.03;2.90;;;16.30;99.90;;;;;;4685009;30;20153;-85
2022/04/21 11:19:25;;;;;;;3.10;2.85;;;16.10;99.90;;;;;;4685828;30;20049;-85
2022/04/21 11:21:55;;;;;;;3.22;2.65;;;;;;;;;;4703877;30;20071;-87
2022/04/21 11:24:21;;;;;;;3.13;2.83;;;;;;;;;;4739332;30;20064;-85
2022/04/21 11:26:59;;;;;;;6.13;3.13;;;16.30;99.90;;;;;;4711449;30;20083;-85
2022/04/21 11:29:25;;;;;;;3.53;2.60;;;;;;;;;;4723709;30;20048;-86
2022/04/21 11:32:02;;;;;;;4.15;2.10;;;16.20;99.90;;;;;;4708918;30;20056;-87
2022/04/21 11:34:28;;;;;;;8.43;3.03;;;;;;;;;;4723357;30;20053;-85
2022/04/21 11:36:56;;;;;;;3.28;2.95;;;;;;;;;;4738295;30;20118;-85
2022/04/21 11:39:22;;;;;;;2.90;2.50;;;;;;;;;;4709833;30;20053;-85
2022/04/21 11:41:49;;;;;;;3.80;2.63;;;;;;;;;;4738385;30;20406;-84
2022/04/21 11:44:28;;;;;;;4.07;2.70;;;16.40;99.90;;;;;;4738479;30;20064;-86
2022/04/21 11:46:54;;;;;;;3.85;2.25;;;;;;;;;;4723671;30;20045;-85
2022/04/21 11:49:20;;;;;;;4.75;2.83;;;;;;;;;;4738877;30;20053;-84
2022/04/21 11:51:56;;;;;;;3.17;2.88;;;;;;;;;;4708871;30;20049;-85
2022/04/21 11:54:22;;;;;;;3.78;2.90;;;;;;;;;;4709209;30;20049;-87
2022/04/21 11:56:52;;;;;;;6.43;3.53;;;;;;;;;;4738217;30;20049;-84
2022/04/21 11:59:18;;;;;;;4.50;2.97;;;;;;;;;;4708384;30;20403;-86
2022/04/21 12:07:16;;;;;;;5.10;3.53;;;;;;;;;;4738559;30;20132;-84
2022/04/21 12:09:42;;;;;;;4.97;4.03;;;;;;;;;;4708377;30;20049;-84
2022/04/21 12:12:08;;;;;;;9.48;4.80;;;;;;;;;;4723581;30;20048;-85
2022/04/21 12:14:39;;;;;;;6.63;4.00;;;16.40;99.90;;;;;;4739376;30;20381;-84
2022/04/21 12:17:06;;;;;;;5.82;3.65;;;;;;;;;;4710104;30;20479;-84
2022/04/21 12:19:32;;;;;;;7.68;3.75;;;;;;;;;;4737265;30;20538;-86
2022/04/21 12:22:02;;;;;;;4.60;4.20;;;;;;;;;;4708749;30;20048;-85
2022/04/21 12:24:34;;;;;;;5.75;4.30;;;16.40;99.90;;;;;;4738888;30;20065;-85
2022/04/21 12:27:03;;;;;;;7.60;3.45;;;16.60;99.90;;;;;;4738992;30;20057;-85
2022/04/21 12:29:31;;;;;;;5.82;3.90;;;;;;;;;;4722137;30;20116;-86
2022/04/21 12:32:01;;;;;;;5.85;3.78;;;16.40;99.90;;;;;;4738335;30;20080;-86
2022/04/21 12:34:29;;;;;;;6.47;3.75;;;16.50;99.90;;;;;;4708443;30;20061;-85
2022/04/21 12:37:02;;;;;;;4.95;3.65;;;16.60;99.90;;;;;;4722933;30;20491;-86
2022/04/21 12:39:29;;;;;;;5.85;3.95;;;16.50;99.90;;;;;;4722842;30;20075;-86
2022/04/21 12:41:57;;;;;;;7.18;4.32;;;16.30;99.90;;;;;;4738298;30;20104;-86
2022/04/21 12:44:24;;;;;;;6.88;4.40;;;;;;;;;;4708584;30;20053;-86
2022/04/21 12:47:12;;;;;;;5.13;3.70;;;16.60;99.90;;;;;;4708595;30;20561;-86
2022/04/21 12:49:54;;;;;;;4.13;3.72;;;;;;;;;;4723392;30;20052;-87
2022/04/21 12:52:39;;;;;;;4.72;4.20;;;16.40;99.90;;;;;;4708755;30;20059;-86
2022/04/21 12:55:06;;;;;;;7.00;4.07;;;16.20;99.90;;;;;;4708149;30;20064;-87
2022/04/21 12:57:33;;;;;;;5.10;3.85;;;;;;;;;;4708588;30;20480;-86
2022/04/21 12:59:59;;;;;;;5.57;3.75;;;;;;;;;;4737204;30;20122;-86
2022/04/21 13:02:26;;;;;;;6.88;3.92;;;;;;;;;;4738234;30;20080;-86
2022/04/21 13:04:52;;;;;;;11.40;4.10;;;16.30;99.90;;;;;;4722874;30;20525;-87
2022/04/21 13:07:18;;;;;;;6.97;4.28;;;;;;;;;;4721912;30;20132;-85
2022/04/21 13:09:44;;;;;;;4.63;4.13;;;;;;;;;;4739167;30;20140;-85
2022/04/21 13:12:11;;;;;;;5.07;4.25;;;;;;;;;;4739449;30;20048;-88
2022/04/21 13:14:37;;;;;;;6.28;4.65;;;;;;;;;;4738616;30;20142;-87
2022/04/21 13:17:03;;;;;;;3.83;3.47;;;;;;;;;;4710859;30;20044;-87
2022/04/21 13:19:29;;;;;;;4.35;3.78;;;;;;;;;;4739616;30;20076;-86
2022/04/21 13:21:55;;;;;;;4.32;3.92;;;;;;;;;;4741478;30;20391;-87
2022/04/21 13:24:29;;;;;;;5.38;3.88;;;16.60;99.90;;;;;;4710954;30;20063;-88
2022/04/21 13:26:55;;;;;;;4.75;3.60;;;;;;;;;;4740248;30;20510;-85
2022/04/21 13:29:21;;;;;;;4.15;3.72;;;;;;;;;;4709460;30;20070;-86
2022/04/21 13:34:33;;;;;;;4.82;3.90;;;;;;;;;;4737556;30;20558;-85
2022/04/21 13:37:01;;;;;;;6.28;4.30;;;16.50;99.90;;;;;;4707497;30;20067;-86
2022/04/21 13:39:27;;;;;;;4.22;3.55;;;;;;;;;;4707255;30;20056;-86
2022/04/21 13:41:53;;;;;;;12.68;4.80;;;;;;;;;;4707112;30;20053;-87
2022/04/21 13:44:19;;;;;;;6.13;3.45;;;;;;;;;;4707012;30;20506;-86
2022/04/21 13:46:45;;;;;;;6.28;3.75;;;;;;;;;;4735902;30;20065;-86
2022/04/21 13:49:11;;;;;;;4.18;3.72;;;;;;;;;;4736892;30;20066;-86
2022/04/21 13:51:38;;;;;;;4.10;3.70;;;;;;;;;;4736196;30;20045;-86
2022/04/21 13:54:04;;;;;;;4.47;3.05;;;;;;;;;;4707381;30;20049;-85
2022/04/21 13:56:30;;;;;;;5.78;3.67;;;;;;;;;;4707236;30;20095;-86
2022/04/21 13:58:59;;;;;;;4.78;3.67;;;;;;;;;;4735873;30;20132;-87
2022/04/21 14:01:25;;;;;;;4.82;3.85;;;;;;;;;;4735947;30;20503;-87
2022/04/21 14:03:52;;;;;;;4.22;3.83;;;;;;;;;;4706975;30;20061;-86
2022/04/21 14:06:18;;;;;;;4.22;3.63;;;;;;;;;;4735999;30;20106;-86
2022/04/21 14:08:44;;;;;;;5.43;4.40;;;16.50;99.90;;;;;;4736039;30;20410;-86
2022/04/21 14:11:12;;;;;;;4.80;4.35;;;16.60;99.90;;;;;;4707323;30;20518;-86
2022/04/21 14:13:38;;;;;;;8.15;4.20;;;;;;;;;;4720858;30;20060;-87
2022/04/21 14:16:05;;;;;;;4.10;3.63;;;16.60;99.90;;;;;;4735562;30;20052;-86
2022/04/21 14:18:31;;;;;;;4.82;3.97;;;;;;;;;;4706869;30;20502;-86
2022/04/21 14:20:57;;;;;;;5.18;4.13;;;;;;;;;;4736142;30;20503;-85
2022/04/21 14:23:24;;;;;;;4.53;4.07;;;;;;;;;;4737342;30;20490;-85
2022/04/21 14:25:53;;;;;;;4.85;3.88;;;;;;;;;;4708911;30;20049;-86
2022/04/21 14:28:19;;;;;;;7.50;4.00;;;;;;;;;;4706341;30;20087;-85
2022/04/21 14:30:45;;;;;;;6.70;4.05;;;;;;;;;;4735347;30;20181;-85
2022/04/21 14:33:11;;;;;;;8.32;5.07;;;16.50;99.90;;;;;;4721486;30;20052;-85
2022/04/21 14:35:37;;;;;;;6.25;4.15;;;;;;;;;;4735627;30;20060;-86
2022/04/21 14:46:18;;;;;;;8.13;5.60;;;;;;;;;;4721153;30;20056;-87
2022/04/21 14:48:44;;;;;;;7.72;5.35;;;16.80;99.90;;;;;;4734904;30;20055;-85
2022/04/21 14:51:10;;;;;;;7.68;5.32;;;;;;;;;;4705964;30;20120;-86
2022/04/21 14:53:38;;;;;;;6.55;5.15;;;;;;;;;;4735160;30;20056;-86
2022/04/21 14:56:04;;;;;;;6.72;5.47;;;;;;;;;;4707106;30;20060;-86
2022/04/21 14:58:30;;;;;;;6.95;5.10;;;;;;;;;;4706329;30;20049;-86
2022/04/21 15:00:56;;;;;;;7.63;5.13;;;;;;;;;;4735462;30;20106;-86
2022/04/21 15:03:22;;;;;;;7.88;5.55;;;16.70;99.90;;;;;;4734625;30;20060;-85
2022/04/21 15:05:49;;;;;;;7.00;5.72;;;;;;;;;;4720616;30;20101;-86
2022/04/21 15:08:15;;;;;;;7.35;5.88;;;;;;;;;;4735630;30;20095;-85
2022/04/21 15:10:41;;;;;;;11.70;6.55;;;;;;;;;;4706152;30;20059;-85
2022/04/21 15:13:07;;;;;;;6.43;5.70;;;;;;;;;;4705704;30;20491;-85
2022/04/21 15:15:35;;;;;;;7.95;6.63;;;16.60;99.90;;;;;;4706533;30;20071;-85
2022/04/21 15:18:01;;;;;;;7.88;6.50;;;;;;;;;;4720821;30;20061;-85
2022/04/21 15:20:29;;;;;;;8.90;5.85;;;16.50;99.90;;;;;;4706223;30;20538;-86
2022/04/21 15:22:55;;;;;;;9.73;6.47;;;;;;;;;;4720052;30;20202;-87
2022/04/21 15:25:22;;;;;;;7.07;5.78;;;;;;;;;;4734338;30;20049;-84